sensor_id;sensor_type;location;lat;lon;timestamp;P1;durP1;ratioP1;P2;durP2;ratioP2
55655;SDS011;41530;52.382;5.270;2023-04-03T00:01:00;0.50;;;0.30;;
55655;SDS011;41530;52.382;5.270;2023-04-03T00:03:26;0.88;;;0.40;;
55655;SDS011;41530;52.382;5.270;2023-04-03T00:05:53;0.93;;;0.47;;
55655;SDS011;41530;52.382;5.270;2023-04-03T00:08:20;0.47;;;0.45;;
55655;SDS011;41530;52.382;5.270;2023-04-03T00:10:47;0.50;;;0.40;;
55655;SDS011;41530;52.382;5.270;2023-04-03T00:13:14;0.75;;;0.50;;
55655;SDS011;41530;52.382;5.270;2023-04-03T00:15:41;0.30;;;0.30;;
55655;SDS011;41530;52.382;5.270;2023-04-03T00:18:08;1.15;;;0.50;;
55655;SDS011;41530;52.382;5.270;2023-04-03T00:20:35;0.38;;;0.32;;
55655;SDS011;41530;52.382;5.270;2023-04-03T00:23:02;1.05;;;0.50;;
55655;SDS011;41530;52.382;5.270;2023-04-03T00:25:28;1.73;;;0.50;;
55655;SDS011;41530;52.382;5.270;2023-04-03T00:27:55;0.70;;;0.65;;
55655;SDS011;41530;52.382;5.270;2023-04-03T00:30:22;1.77;;;0.60;;
55655;SDS011;41530;52.382;5.270;2023-04-03T00:32:49;1.15;;;0.35;;
55655;SDS011;41530;52.382;5.270;2023-04-03T00:35:16;2.47;;;0.60;;
55655;SDS011;41530;52.382;5.270;2023-04-03T00:37:45;0.57;;;0.40;;
55655;SDS011;41530;52.382;5.270;2023-04-03T00:40:13;1.45;;;0.50;;
55655;SDS011;41530;52.382;5.270;2023-04-03T00:42:41;0.93;;;0.57;;
55655;SDS011;41530;52.382;5.270;2023-04-03T00:48:03;0.70;;;0.50;;
55655;SDS011;41530;52.382;5.270;2023-04-03T00:50:32;0.40;;;0.40;;
55655;SDS011;41530;52.382;5.270;2023-04-03T00:53:04;1.45;;;0.50;;
55655;SDS011;41530;52.382;5.270;2023-04-03T00:55:33;0.63;;;0.40;;
55655;SDS011;41530;52.382;5.270;2023-04-03T00:58:02;0.47;;;0.47;;
55655;SDS011;41530;52.382;5.270;2023-04-03T01:00:30;0.75;;;0.60;;
55655;SDS011;41530;52.382;5.270;2023-04-03T01:02:57;1.45;;;0.50;;
55655;SDS011;41530;52.382;5.270;2023-04-03T01:05:23;0.93;;;0.30;;
55655;SDS011;41530;52.382;5.270;2023-04-03T01:07:50;0.40;;;0.40;;
55655;SDS011;41530;52.382;5.270;2023-04-03T01:10:18;1.02;;;0.40;;
55655;SDS011;41530;52.382;5.270;2023-04-03T01:12:48;1.05;;;0.35;;
55655;SDS011;41530;52.382;5.270;2023-04-03T01:15:18;0.43;;;0.30;;
55655;SDS011;41530;52.382;5.270;2023-04-03T01:17:47;1.23;;;0.40;;
55655;SDS011;41530;52.382;5.270;2023-04-03T01:25:41;1.20;;;0.52;;
55655;SDS011;41530;52.382;5.270;2023-04-03T01:28:11;5.32;;;0.52;;
55655;SDS011;41530;52.382;5.270;2023-04-03T01:30:45;1.90;;;0.40;;
55655;SDS011;41530;52.382;5.270;2023-04-03T01:33:19;0.95;;;0.55;;
55655;SDS011;41530;52.382;5.270;2023-04-03T01:35:45;0.70;;;0.50;;
55655;SDS011;41530;52.382;5.270;2023-04-03T01:38:12;0.85;;;0.50;;
55655;SDS011;41530;52.382;5.270;2023-04-03T01:40:39;0.95;;;0.50;;
55655;SDS011;41530;52.382;5.270;2023-04-03T01:43:06;0.77;;;0.52;;
55655;SDS011;41530;52.382;5.270;2023-04-03T01:45:32;0.60;;;0.40;;
55655;SDS011;41530;52.382;5.270;2023-04-03T01:47:59;0.95;;;0.40;;
55655;SDS011;41530;52.382;5.270;2023-04-03T01:50:26;0.75;;;0.60;;
55655;SDS011;41530;52.382;5.270;2023-04-03T01:52:52;1.23;;;0.60;;
55655;SDS011;41530;52.382;5.270;2023-04-03T01:55:19;1.10;;;0.40;;
55655;SDS011;41530;52.382;5.270;2023-04-03T01:57:46;1.38;;;0.52;;
55655;SDS011;41530;52.382;5.270;2023-04-03T02:00:12;0.80;;;0.40;;
55655;SDS011;41530;52.382;5.270;2023-04-03T02:02:40;0.85;;;0.50;;
55655;SDS011;41530;52.382;5.270;2023-04-03T02:05:06;1.17;;;0.60;;
55655;SDS011;41530;52.382;5.270;2023-04-03T02:07:33;0.75;;;0.50;;
55655;SDS011;41530;52.382;5.270;2023-04-03T02:10:00;1.38;;;0.60;;
55655;SDS011;41530;52.382;5.270;2023-04-03T02:12:27;1.13;;;0.60;;
55655;SDS011;41530;52.382;5.270;2023-04-03T02:14:53;2.60;;;0.60;;
55655;SDS011;41530;52.382;5.270;2023-04-03T02:17:20;0.57;;;0.30;;
55655;SDS011;41530;52.382;5.270;2023-04-03T02:19:47;1.17;;;0.55;;
55655;SDS011;41530;52.382;5.270;2023-04-03T02:22:13;0.52;;;0.40;;
55655;SDS011;41530;52.382;5.270;2023-04-03T02:24:40;0.60;;;0.40;;
55655;SDS011;41530;52.382;5.270;2023-04-03T02:27:07;0.98;;;0.57;;
55655;SDS011;41530;52.382;5.270;2023-04-03T02:29:34;1.13;;;0.50;;
55655;SDS011;41530;52.382;5.270;2023-04-03T02:32:00;0.73;;;0.40;;
55655;SDS011;41530;52.382;5.270;2023-04-03T02:34:27;1.35;;;0.45;;
55655;SDS011;41530;52.382;5.270;2023-04-03T02:36:53;0.35;;;0.35;;
55655;SDS011;41530;52.382;5.270;2023-04-03T02:39:20;0.63;;;0.50;;
55655;SDS011;41530;52.382;5.270;2023-04-03T02:41:47;0.60;;;0.40;;
55655;SDS011;41530;52.382;5.270;2023-04-03T02:44:13;1.48;;;0.60;;
55655;SDS011;41530;52.382;5.270;2023-04-03T02:46:40;2.42;;;0.60;;
55655;SDS011;41530;52.382;5.270;2023-04-03T02:49:07;4.07;;;0.45;;
55655;SDS011;41530;52.382;5.270;2023-04-03T02:51:33;1.23;;;0.50;;
55655;SDS011;41530;52.382;5.270;2023-04-03T02:54:00;0.45;;;0.40;;
55655;SDS011;41530;52.382;5.270;2023-04-03T02:56:27;1.30;;;0.60;;
55655;SDS011;41530;52.382;5.270;2023-04-03T02:58:54;2.05;;;0.55;;
55655;SDS011;41530;52.382;5.270;2023-04-03T03:01:20;0.98;;;0.40;;
55655;SDS011;41530;52.382;5.270;2023-04-03T03:03:47;2.70;;;0.50;;
55655;SDS011;41530;52.382;5.270;2023-04-03T03:06:15;0.77;;;0.40;;
55655;SDS011;41530;52.382;5.270;2023-04-03T03:08:42;0.98;;;0.40;;
55655;SDS011;41530;52.382;5.270;2023-04-03T03:11:09;0.40;;;0.32;;
55655;SDS011;41530;52.382;5.270;2023-04-03T03:13:36;0.60;;;0.47;;
55655;SDS011;41530;52.382;5.270;2023-04-03T03:16:03;1.75;;;0.55;;
55655;SDS011;41530;52.382;5.270;2023-04-03T03:18:30;1.50;;;0.68;;
55655;SDS011;41530;52.382;5.270;2023-04-03T03:20:57;1.00;;;0.50;;
55655;SDS011;41530;52.382;5.270;2023-04-03T03:23:25;1.42;;;0.50;;
55655;SDS011;41530;52.382;5.270;2023-04-03T03:25:57;0.88;;;0.50;;
55655;SDS011;41530;52.382;5.270;2023-04-03T03:28:29;0.90;;;0.35;;
55655;SDS011;41530;52.382;5.270;2023-04-03T03:30:56;0.82;;;0.40;;
55655;SDS011;41530;52.382;5.270;2023-04-03T03:33:24;1.88;;;0.43;;
55655;SDS011;41530;52.382;5.270;2023-04-03T03:35:51;1.15;;;0.60;;
55655;SDS011;41530;52.382;5.270;2023-04-03T03:38:19;0.73;;;0.40;;
55655;SDS011;41530;52.382;5.270;2023-04-03T03:40:46;1.50;;;0.50;;
55655;SDS011;41530;52.382;5.270;2023-04-03T03:43:15;0.73;;;0.70;;
55655;SDS011;41530;52.382;5.270;2023-04-03T03:45:42;1.50;;;0.60;;
55655;SDS011;41530;52.382;5.270;2023-04-03T03:48:09;2.03;;;0.70;;
55655;SDS011;41530;52.382;5.270;2023-04-03T03:50:36;1.75;;;0.45;;
55655;SDS011;41530;52.382;5.270;2023-04-03T03:53:02;0.80;;;0.50;;
55655;SDS011;41530;52.382;5.270;2023-04-03T03:55:29;0.80;;;0.50;;
55655;SDS011;41530;52.382;5.270;2023-04-03T03:57:55;2.00;;;0.50;;
55655;SDS011;41530;52.382;5.270;2023-04-03T04:00:22;1.48;;;0.88;;
55655;SDS011;41530;52.382;5.270;2023-04-03T04:02:49;1.65;;;0.45;;
55655;SDS011;41530;52.382;5.270;2023-04-03T04:05:15;1.08;;;0.50;;
55655;SDS011;41530;52.382;5.270;2023-04-03T04:07:42;1.25;;;0.40;;
55655;SDS011;41530;52.382;5.270;2023-04-03T04:10:09;1.52;;;0.70;;
55655;SDS011;41530;52.382;5.270;2023-04-03T04:12:35;4.30;;;0.50;;
55655;SDS011;41530;52.382;5.270;2023-04-03T04:15:02;1.85;;;0.60;;
55655;SDS011;41530;52.382;5.270;2023-04-03T04:17:29;1.38;;;0.63;;
55655;SDS011;41530;52.382;5.270;2023-04-03T04:19:56;2.15;;;0.65;;
55655;SDS011;41530;52.382;5.270;2023-04-03T04:22:22;0.88;;;0.43;;
55655;SDS011;41530;52.382;5.270;2023-04-03T04:24:49;0.45;;;0.45;;
55655;SDS011;41530;52.382;5.270;2023-04-03T04:27:15;0.70;;;0.52;;
55655;SDS011;41530;52.382;5.270;2023-04-03T04:29:42;2.33;;;0.70;;
55655;SDS011;41530;52.382;5.270;2023-04-03T04:32:09;1.73;;;0.57;;
55655;SDS011;41530;52.382;5.270;2023-04-03T04:34:35;0.50;;;0.40;;
55655;SDS011;41530;52.382;5.270;2023-04-03T04:37:02;1.85;;;0.52;;
55655;SDS011;41530;52.382;5.270;2023-04-03T04:39:29;1.42;;;0.70;;
55655;SDS011;41530;52.382;5.270;2023-04-03T04:41:56;1.77;;;0.75;;
55655;SDS011;41530;52.382;5.270;2023-04-03T04:44:22;1.63;;;0.50;;
55655;SDS011;41530;52.382;5.270;2023-04-03T04:46:49;0.90;;;0.50;;
55655;SDS011;41530;52.382;5.270;2023-04-03T04:49:15;1.73;;;0.50;;
55655;SDS011;41530;52.382;5.270;2023-04-03T04:51:42;1.55;;;0.60;;
55655;SDS011;41530;52.382;5.270;2023-04-03T04:54:17;1.70;;;0.70;;
55655;SDS011;41530;52.382;5.270;2023-04-03T04:56:44;0.70;;;0.50;;
55655;SDS011;41530;52.382;5.270;2023-04-03T04:59:11;0.68;;;0.45;;
55655;SDS011;41530;52.382;5.270;2023-04-03T05:01:37;1.20;;;0.60;;
55655;SDS011;41530;52.382;5.270;2023-04-03T05:04:04;2.13;;;0.80;;
55655;SDS011;41530;52.382;5.270;2023-04-03T05:06:31;0.68;;;0.50;;
55655;SDS011;41530;52.382;5.270;2023-04-03T05:13:10;2.83;;;0.57;;
55655;SDS011;41530;52.382;5.270;2023-04-03T05:24:17;1.67;;;0.68;;
55655;SDS011;41530;52.382;5.270;2023-04-03T05:31:40;2.40;;;0.70;;
55655;SDS011;41530;52.382;5.270;2023-04-03T05:45:56;0.88;;;0.55;;
55655;SDS011;41530;52.382;5.270;2023-04-03T05:52:08;2.75;;;0.70;;
55655;SDS011;41530;52.382;5.270;2023-04-03T05:56:02;1.10;;;0.60;;
55655;SDS011;41530;52.382;5.270;2023-04-03T05:59:09;1.73;;;0.70;;
55655;SDS011;41530;52.382;5.270;2023-04-03T06:02:39;1.08;;;0.60;;
55655;SDS011;41530;52.382;5.270;2023-04-03T06:05:31;1.67;;;0.73;;
55655;SDS011;41530;52.382;5.270;2023-04-03T06:08:12;0.90;;;0.60;;
55655;SDS011;41530;52.382;5.270;2023-04-03T06:11:07;1.05;;;0.65;;
55655;SDS011;41530;52.382;5.270;2023-04-03T06:13:40;2.08;;;0.80;;
55655;SDS011;41530;52.382;5.270;2023-04-03T06:16:15;0.77;;;0.60;;
55655;SDS011;41530;52.382;5.270;2023-04-03T06:19:34;2.25;;;0.95;;
55655;SDS011;41530;52.382;5.270;2023-04-03T06:22:28;1.77;;;0.80;;
55655;SDS011;41530;52.382;5.270;2023-04-03T06:25:20;1.52;;;0.80;;
55655;SDS011;41530;52.382;5.270;2023-04-03T06:28:30;1.65;;;0.88;;
55655;SDS011;41530;52.382;5.270;2023-04-03T06:31:05;1.52;;;0.80;;
55655;SDS011;41530;52.382;5.270;2023-04-03T06:33:38;3.92;;;1.23;;
55655;SDS011;41530;52.382;5.270;2023-04-03T06:36:30;2.10;;;0.98;;
55655;SDS011;41530;52.382;5.270;2023-04-03T06:39:08;1.95;;;0.80;;
55655;SDS011;41530;52.382;5.270;2023-04-03T06:42:14;1.15;;;0.75;;
55655;SDS011;41530;52.382;5.270;2023-04-03T06:44:55;2.13;;;1.00;;
55655;SDS011;41530;52.382;5.270;2023-04-03T06:47:27;1.23;;;0.70;;
55655;SDS011;41530;52.382;5.270;2023-04-03T06:53:09;2.13;;;0.75;;
55655;SDS011;41530;52.382;5.270;2023-04-03T06:59:49;2.10;;;0.80;;
55655;SDS011;41530;52.382;5.270;2023-04-03T07:02:35;2.08;;;0.75;;
55655;SDS011;41530;52.382;5.270;2023-04-03T07:05:43;1.85;;;0.77;;
55655;SDS011;41530;52.382;5.270;2023-04-03T07:08:58;2.15;;;0.80;;
55655;SDS011;41530;52.382;5.270;2023-04-03T07:15:50;1.90;;;0.50;;
55655;SDS011;41530;52.382;5.270;2023-04-03T07:18:46;0.90;;;0.60;;
55655;SDS011;41530;52.382;5.270;2023-04-03T07:21:23;2.65;;;0.80;;
55655;SDS011;41530;52.382;5.270;2023-04-03T07:29:42;1.45;;;0.70;;
55655;SDS011;41530;52.382;5.270;2023-04-03T07:32:12;2.33;;;0.80;;
55655;SDS011;41530;52.382;5.270;2023-04-03T07:37:56;1.42;;;0.80;;
55655;SDS011;41530;52.382;5.270;2023-04-03T07:40:44;0.88;;;0.47;;
55655;SDS011;41530;52.382;5.270;2023-04-03T07:43:26;1.08;;;0.50;;
55655;SDS011;41530;52.382;5.270;2023-04-03T07:46:31;0.80;;;0.40;;
55655;SDS011;41530;52.382;5.270;2023-04-03T07:49:58;1.00;;;0.52;;
55655;SDS011;41530;52.382;5.270;2023-04-03T07:53:23;2.13;;;0.55;;
55655;SDS011;41530;52.382;5.270;2023-04-03T07:56:43;1.20;;;0.50;;
55655;SDS011;41530;52.382;5.270;2023-04-03T07:59:53;1.85;;;0.70;;
55655;SDS011;41530;52.382;5.270;2023-04-03T08:21:31;0.68;;;0.65;;
55655;SDS011;41530;52.382;5.270;2023-04-03T08:24:54;2.17;;;0.90;;
55655;SDS011;41530;52.382;5.270;2023-04-03T08:32:16;0.93;;;0.50;;
55655;SDS011;41530;52.382;5.270;2023-04-03T08:38:31;2.80;;;0.60;;
55655;SDS011;41530;52.382;5.270;2023-04-03T08:41:39;2.67;;;0.60;;
55655;SDS011;41530;52.382;5.270;2023-04-03T08:44:44;1.30;;;0.60;;
55655;SDS011;41530;52.382;5.270;2023-04-03T08:50:54;1.13;;;0.40;;
55655;SDS011;41530;52.382;5.270;2023-04-03T08:58:02;1.75;;;0.50;;
55655;SDS011;41530;52.382;5.270;2023-04-03T09:13:08;0.90;;;0.55;;
55655;SDS011;41530;52.382;5.270;2023-04-03T09:22:54;0.75;;;0.50;;
55655;SDS011;41530;52.382;5.270;2023-04-03T09:26:06;1.20;;;0.40;;
55655;SDS011;41530;52.382;5.270;2023-04-03T09:29:32;1.08;;;0.50;;
55655;SDS011;41530;52.382;5.270;2023-04-03T09:40:11;0.40;;;0.40;;
55655;SDS011;41530;52.382;5.270;2023-04-03T09:47:28;0.60;;;0.40;;
55655;SDS011;41530;52.382;5.270;2023-04-03T09:53:41;0.55;;;0.40;;
55655;SDS011;41530;52.382;5.270;2023-04-03T09:56:56;0.93;;;0.30;;
55655;SDS011;41530;52.382;5.270;2023-04-03T10:00:20;0.75;;;0.50;;
55655;SDS011;41530;52.382;5.270;2023-04-03T10:07:04;0.77;;;0.50;;
55655;SDS011;41530;52.382;5.270;2023-04-03T10:14:15;0.80;;;0.50;;
55655;SDS011;41530;52.382;5.270;2023-04-03T10:16:55;0.88;;;0.30;;
55655;SDS011;41530;52.382;5.270;2023-04-03T10:20:35;0.90;;;0.40;;
55655;SDS011;41530;52.382;5.270;2023-04-03T10:23:26;2.17;;;0.53;;
55655;SDS011;41530;52.382;5.270;2023-04-03T10:59:58;0.98;;;0.43;;
55655;SDS011;41530;52.382;5.270;2023-04-03T11:03:32;0.32;;;0.30;;
55655;SDS011;41530;52.382;5.270;2023-04-03T11:06:48;0.82;;;0.43;;
55655;SDS011;41530;52.382;5.270;2023-04-03T11:17:54;0.45;;;0.30;;
55655;SDS011;41530;52.382;5.270;2023-04-03T11:21:30;0.30;;;0.30;;
55655;SDS011;41530;52.382;5.270;2023-04-03T11:24:31;0.52;;;0.38;;
55655;SDS011;41530;52.382;5.270;2023-04-03T11:28:04;1.30;;;0.40;;
55655;SDS011;41530;52.382;5.270;2023-04-03T11:34:53;0.43;;;0.30;;
55655;SDS011;41530;52.382;5.270;2023-04-03T11:37:55;1.05;;;0.40;;
55655;SDS011;41530;52.382;5.270;2023-04-03T11:40:53;0.55;;;0.30;;
55655;SDS011;41530;52.382;5.270;2023-04-03T12:05:52;0.52;;;0.30;;
55655;SDS011;41530;52.382;5.270;2023-04-03T12:12:58;0.75;;;0.30;;
55655;SDS011;41530;52.382;5.270;2023-04-03T12:19:32;0.20;;;0.20;;
55655;SDS011;41530;52.382;5.270;2023-04-03T12:41:16;0.45;;;0.30;;
55655;SDS011;41530;52.382;5.270;2023-04-03T12:47:36;1.50;;;0.40;;
55655;SDS011;41530;52.382;5.270;2023-04-03T12:53:35;0.70;;;0.40;;
55655;SDS011;41530;52.382;5.270;2023-04-03T12:56:35;0.93;;;0.40;;
55655;SDS011;41530;52.382;5.270;2023-04-03T12:59:16;3.13;;;0.40;;
55655;SDS011;41530;52.382;5.270;2023-04-03T13:05:49;4.20;;;0.30;;
55655;SDS011;41530;52.382;5.270;2023-04-03T13:08:57;5.72;;;0.52;;
55655;SDS011;41530;52.382;5.270;2023-04-03T13:15:47;0.32;;;0.28;;
55655;SDS011;41530;52.382;5.270;2023-04-03T13:21:15;0.95;;;0.30;;
55655;SDS011;41530;52.382;5.270;2023-04-03T13:24:15;0.50;;;0.30;;
55655;SDS011;41530;52.382;5.270;2023-04-03T13:27:07;1.40;;;0.40;;
55655;SDS011;41530;52.382;5.270;2023-04-03T13:34:17;1.63;;;0.45;;
55655;SDS011;41530;52.382;5.270;2023-04-03T13:37:52;0.40;;;0.40;;
55655;SDS011;41530;52.382;5.270;2023-04-03T13:40:46;3.13;;;0.50;;
55655;SDS011;41530;52.382;5.270;2023-04-03T13:43:57;0.40;;;0.30;;
55655;SDS011;41530;52.382;5.270;2023-04-03T14:02:38;1.10;;;0.40;;
55655;SDS011;41530;52.382;5.270;2023-04-03T14:06:09;0.73;;;0.43;;
55655;SDS011;41530;52.382;5.270;2023-04-03T14:08:52;3.53;;;0.77;;
55655;SDS011;41530;52.382;5.270;2023-04-03T14:11:53;0.40;;;0.30;;
55655;SDS011;41530;52.382;5.270;2023-04-03T14:15:12;0.80;;;0.40;;
55655;SDS011;41530;52.382;5.270;2023-04-03T14:17:52;2.22;;;0.30;;
55655;SDS011;41530;52.382;5.270;2023-04-03T14:20:36;0.73;;;0.30;;
55655;SDS011;41530;52.382;5.270;2023-04-03T14:23:11;1.27;;;0.30;;
55655;SDS011;41530;52.382;5.270;2023-04-03T14:25:40;1.52;;;0.30;;
55655;SDS011;41530;52.382;5.270;2023-04-03T14:31:26;1.02;;;0.40;;
55655;SDS011;41530;52.382;5.270;2023-04-03T14:34:11;0.30;;;0.30;;
55655;SDS011;41530;52.382;5.270;2023-04-03T14:36:43;0.80;;;0.45;;
55655;SDS011;41530;52.382;5.270;2023-04-03T14:39:18;0.57;;;0.30;;
55655;SDS011;41530;52.382;5.270;2023-04-03T14:41:59;0.80;;;0.40;;
55655;SDS011;41530;52.382;5.270;2023-04-03T14:44:36;1.38;;;0.40;;
55655;SDS011;41530;52.382;5.270;2023-04-03T14:47:07;0.80;;;0.30;;
55655;SDS011;41530;52.382;5.270;2023-04-03T14:50:04;2.75;;;0.50;;
55655;SDS011;41530;52.382;5.270;2023-04-03T14:52:35;1.38;;;0.40;;
55655;SDS011;41530;52.382;5.270;2023-04-03T14:55:07;0.85;;;0.40;;
55655;SDS011;41530;52.382;5.270;2023-04-03T14:57:37;0.57;;;0.38;;
55655;SDS011;41530;52.382;5.270;2023-04-03T15:00:16;0.60;;;0.40;;
55655;SDS011;41530;52.382;5.270;2023-04-03T15:06:22;0.95;;;0.30;;
55655;SDS011;41530;52.382;5.270;2023-04-03T15:09:20;0.52;;;0.35;;
55655;SDS011;41530;52.382;5.270;2023-04-03T15:12:15;0.65;;;0.40;;
55655;SDS011;41530;52.382;5.270;2023-04-03T15:18:21;0.65;;;0.40;;
55655;SDS011;41530;52.382;5.270;2023-04-03T15:21:48;0.70;;;0.50;;
55655;SDS011;41530;52.382;5.270;2023-04-03T15:31:34;0.85;;;0.30;;
55655;SDS011;41530;52.382;5.270;2023-04-03T15:37:17;0.73;;;0.40;;
55655;SDS011;41530;52.382;5.270;2023-04-03T15:39:49;1.00;;;0.40;;
55655;SDS011;41530;52.382;5.270;2023-04-03T15:42:30;0.85;;;0.40;;
55655;SDS011;41530;52.382;5.270;2023-04-03T15:44:59;0.35;;;0.35;;
55655;SDS011;41530;52.382;5.270;2023-04-03T15:47:31;0.55;;;0.28;;
55655;SDS011;41530;52.382;5.270;2023-04-03T15:50:00;0.30;;;0.30;;
55655;SDS011;41530;52.382;5.270;2023-04-03T15:52:34;1.60;;;0.38;;
55655;SDS011;41530;52.382;5.270;2023-04-03T15:55:11;2.80;;;0.50;;
55655;SDS011;41530;52.382;5.270;2023-04-03T15:57:46;0.45;;;0.40;;
55655;SDS011;41530;52.382;5.270;2023-04-03T16:00:13;1.75;;;0.30;;
55655;SDS011;41530;52.382;5.270;2023-04-03T16:02:45;0.63;;;0.30;;
55655;SDS011;41530;52.382;5.270;2023-04-03T16:08:42;0.88;;;0.32;;
55655;SDS011;41530;52.382;5.270;2023-04-03T16:11:11;0.35;;;0.25;;
55655;SDS011;41530;52.382;5.270;2023-04-03T16:14:02;0.90;;;0.30;;
55655;SDS011;41530;52.382;5.270;2023-04-03T16:16:29;0.85;;;0.40;;
55655;SDS011;41530;52.382;5.270;2023-04-03T16:18:59;1.17;;;0.50;;
55655;SDS011;41530;52.382;5.270;2023-04-03T16:21:29;0.85;;;0.40;;
55655;SDS011;41530;52.382;5.270;2023-04-03T16:24:05;1.58;;;0.50;;
55655;SDS011;41530;52.382;5.270;2023-04-03T16:26:39;1.40;;;0.50;;
55655;SDS011;41530;52.382;5.270;2023-04-03T16:29:14;1.50;;;0.95;;
55655;SDS011;41530;52.382;5.270;2023-04-03T16:31:44;4.93;;;1.42;;
55655;SDS011;41530;52.382;5.270;2023-04-03T16:34:13;6.18;;;2.28;;
55655;SDS011;41530;52.382;5.270;2023-04-03T16:36:45;4.57;;;2.60;;
55655;SDS011;41530;52.382;5.270;2023-04-03T16:39:18;8.60;;;3.08;;
55655;SDS011;41530;52.382;5.270;2023-04-03T16:42:16;6.05;;;3.30;;
55655;SDS011;41530;52.382;5.270;2023-04-03T16:44:46;6.97;;;3.35;;
55655;SDS011;41530;52.382;5.270;2023-04-03T16:47:15;11.70;;;2.97;;
55655;SDS011;41530;52.382;5.270;2023-04-03T16:49:45;10.52;;;3.17;;
55655;SDS011;41530;52.382;5.270;2023-04-03T16:52:13;6.20;;;3.20;;
55655;SDS011;41530;52.382;5.270;2023-04-03T16:54:43;5.25;;;2.75;;
55655;SDS011;41530;52.382;5.270;2023-04-03T16:57:12;6.25;;;3.10;;
55655;SDS011;41530;52.382;5.270;2023-04-03T16:59:41;5.75;;;3.05;;
55655;SDS011;41530;52.382;5.270;2023-04-03T17:02:09;4.90;;;2.35;;
55655;SDS011;41530;52.382;5.270;2023-04-03T17:04:39;5.78;;;2.45;;
55655;SDS011;41530;52.382;5.270;2023-04-03T17:07:08;6.00;;;2.80;;
55655;SDS011;41530;52.382;5.270;2023-04-03T17:09:38;6.43;;;2.22;;
55655;SDS011;41530;52.382;5.270;2023-04-03T17:12:09;5.78;;;2.30;;
55655;SDS011;41530;52.382;5.270;2023-04-03T17:14:38;4.32;;;2.35;;
55655;SDS011;41530;52.382;5.270;2023-04-03T17:17:23;3.83;;;1.95;;
55655;SDS011;41530;52.382;5.270;2023-04-03T17:19:53;6.63;;;2.40;;
55655;SDS011;41530;52.382;5.270;2023-04-03T17:22:29;7.22;;;2.10;;
55655;SDS011;41530;52.382;5.270;2023-04-03T17:25:19;6.22;;;2.30;;
55655;SDS011;41530;52.382;5.270;2023-04-03T17:28:40;4.93;;;2.08;;
55655;SDS011;41530;52.382;5.270;2023-04-03T17:31:37;4.93;;;2.25;;
55655;SDS011;41530;52.382;5.270;2023-04-03T17:35:25;5.65;;;2.25;;
55655;SDS011;41530;52.382;5.270;2023-04-03T17:42:08;3.55;;;1.80;;
55655;SDS011;41530;52.382;5.270;2023-04-03T17:44:53;3.53;;;1.92;;
55655;SDS011;41530;52.382;5.270;2023-04-03T17:47:31;6.13;;;2.05;;
55655;SDS011;41530;52.382;5.270;2023-04-03T17:50:12;2.97;;;1.90;;
55655;SDS011;41530;52.382;5.270;2023-04-03T17:53:13;6.72;;;1.92;;
55655;SDS011;41530;52.382;5.270;2023-04-03T17:55:50;3.10;;;1.77;;
55655;SDS011;41530;52.382;5.270;2023-04-03T17:58:18;3.87;;;1.73;;
55655;SDS011;41530;52.382;5.270;2023-04-03T18:00:50;3.75;;;1.75;;
55655;SDS011;41530;52.382;5.270;2023-04-03T18:03:51;3.75;;;1.77;;
55655;SDS011;41530;52.382;5.270;2023-04-03T18:06:47;5.95;;;1.95;;
55655;SDS011;41530;52.382;5.270;2023-04-03T18:09:35;3.80;;;1.80;;
55655;SDS011;41530;52.382;5.270;2023-04-03T18:12:23;3.35;;;1.50;;
55655;SDS011;41530;52.382;5.270;2023-04-03T18:15:14;4.25;;;1.67;;
55655;SDS011;41530;52.382;5.270;2023-04-03T18:18:26;3.83;;;1.50;;
55655;SDS011;41530;52.382;5.270;2023-04-03T18:27:46;3.47;;;1.50;;
55655;SDS011;41530;52.382;5.270;2023-04-03T18:30:46;4.72;;;1.30;;
55655;SDS011;41530;52.382;5.270;2023-04-03T18:40:59;3.78;;;1.40;;
55655;SDS011;41530;52.382;5.270;2023-04-03T18:44:32;4.43;;;1.38;;
55655;SDS011;41530;52.382;5.270;2023-04-03T18:47:45;3.50;;;1.13;;
55655;SDS011;41530;52.382;5.270;2023-04-03T18:53:39;2.70;;;1.65;;
55655;SDS011;41530;52.382;5.270;2023-04-03T18:56:11;2.20;;;1.17;;
55655;SDS011;41530;52.382;5.270;2023-04-03T18:58:44;1.95;;;1.33;;
55655;SDS011;41530;52.382;5.270;2023-04-03T19:01:19;1.58;;;1.33;;
55655;SDS011;41530;52.382;5.270;2023-04-03T19:04:45;3.05;;;1.13;;
55655;SDS011;41530;52.382;5.270;2023-04-03T19:07:21;2.10;;;1.00;;
55655;SDS011;41530;52.382;5.270;2023-04-03T19:10:05;3.03;;;1.00;;
55655;SDS011;41530;52.382;5.270;2023-04-03T19:12:55;1.88;;;1.20;;
55655;SDS011;41530;52.382;5.270;2023-04-03T19:18:33;1.85;;;0.82;;
55655;SDS011;41530;52.382;5.270;2023-04-03T19:21:38;1.42;;;1.08;;
55655;SDS011;41530;52.382;5.270;2023-04-03T19:24:35;2.25;;;1.00;;
55655;SDS011;41530;52.382;5.270;2023-04-03T19:34:17;1.67;;;1.10;;
55655;SDS011;41530;52.382;5.270;2023-04-03T19:36:50;3.78;;;1.10;;
55655;SDS011;41530;52.382;5.270;2023-04-03T19:39:42;1.27;;;1.00;;
55655;SDS011;41530;52.382;5.270;2023-04-03T19:50:03;1.90;;;1.00;;
55655;SDS011;41530;52.382;5.270;2023-04-03T19:53:05;2.22;;;1.08;;
55655;SDS011;41530;52.382;5.270;2023-04-03T19:56:31;2.50;;;0.90;;
55655;SDS011;41530;52.382;5.270;2023-04-03T19:59:02;3.75;;;0.98;;
55655;SDS011;41530;52.382;5.270;2023-04-03T20:05:09;0.95;;;0.82;;
55655;SDS011;41530;52.382;5.270;2023-04-03T20:08:13;1.38;;;0.90;;
55655;SDS011;41530;52.382;5.270;2023-04-03T20:17:51;1.77;;;1.00;;
55655;SDS011;41530;52.382;5.270;2023-04-03T20:20:43;1.27;;;0.82;;
55655;SDS011;41530;52.382;5.270;2023-04-03T20:30:35;1.35;;;0.80;;
55655;SDS011;41530;52.382;5.270;2023-04-03T20:37:13;2.15;;;1.00;;
55655;SDS011;41530;52.382;5.270;2023-04-03T20:40:35;0.93;;;0.80;;
55655;SDS011;41530;52.382;5.270;2023-04-03T20:43:43;1.23;;;0.82;;
55655;SDS011;41530;52.382;5.270;2023-04-03T20:46:54;0.77;;;0.52;;
55655;SDS011;41530;52.382;5.270;2023-04-03T20:50:15;1.45;;;0.90;;
55655;SDS011;41530;52.382;5.270;2023-04-03T20:53:34;0.82;;;0.70;;
55655;SDS011;41530;52.382;5.270;2023-04-03T20:56:42;1.13;;;0.80;;
55655;SDS011;41530;52.382;5.270;2023-04-03T21:03:32;0.98;;;0.80;;
55655;SDS011;41530;52.382;5.270;2023-04-03T21:20:06;1.55;;;0.80;;
55655;SDS011;41530;52.382;5.270;2023-04-03T21:23:17;1.23;;;0.77;;
55655;SDS011;41530;52.382;5.270;2023-04-03T21:26:25;1.15;;;0.80;;
55655;SDS011;41530;52.382;5.270;2023-04-03T21:29:43;1.30;;;0.70;;
55655;SDS011;41530;52.382;5.270;2023-04-03T21:36:24;1.15;;;0.70;;
55655;SDS011;41530;52.382;5.270;2023-04-03T21:42:14;1.02;;;0.65;;
55655;SDS011;41530;52.382;5.270;2023-04-03T21:45:21;1.63;;;0.95;;
55655;SDS011;41530;52.382;5.270;2023-04-03T21:48:13;1.63;;;0.60;;
55655;SDS011;41530;52.382;5.270;2023-04-03T21:50:49;0.70;;;0.57;;
55655;SDS011;41530;52.382;5.270;2023-04-03T21:53:39;0.90;;;0.80;;
55655;SDS011;41530;52.382;5.270;2023-04-03T21:56:44;1.30;;;0.80;;
55655;SDS011;41530;52.382;5.270;2023-04-03T21:59:25;1.25;;;0.70;;
55655;SDS011;41530;52.382;5.270;2023-04-03T22:02:14;1.00;;;0.50;;
55655;SDS011;41530;52.382;5.270;2023-04-03T22:04:54;0.70;;;0.60;;
55655;SDS011;41530;52.382;5.270;2023-04-03T22:07:52;0.52;;;0.50;;
55655;SDS011;41530;52.382;5.270;2023-04-03T22:10:45;2.63;;;0.52;;
55655;SDS011;41530;52.382;5.270;2023-04-03T22:13:22;0.55;;;0.40;;
55655;SDS011;41530;52.382;5.270;2023-04-03T22:16:36;1.58;;;0.70;;
55655;SDS011;41530;52.382;5.270;2023-04-03T22:19:59;1.10;;;0.60;;
55655;SDS011;41530;52.382;5.270;2023-04-03T22:23:10;1.48;;;0.60;;
55655;SDS011;41530;52.382;5.270;2023-04-03T22:26:06;1.02;;;0.60;;
55655;SDS011;41530;52.382;5.270;2023-04-03T22:29:03;0.63;;;0.45;;
55655;SDS011;41530;52.382;5.270;2023-04-03T22:32:08;1.15;;;0.60;;
55655;SDS011;41530;52.382;5.270;2023-04-03T22:38:13;1.40;;;0.50;;
55655;SDS011;41530;52.382;5.270;2023-04-03T22:41:02;1.70;;;0.80;;
55655;SDS011;41530;52.382;5.270;2023-04-03T22:43:55;1.35;;;0.60;;